createdAt,value
2019-01-12T00:01:35.665Z,26.6
2019-01-12T00:04:41.814Z,26.6
2019-01-12T00:07:47.890Z,26.7
2019-01-12T00:10:53.838Z,26.8
2019-01-12T00:13:59.796Z,26.8
2019-01-12T00:17:05.857Z,26.7
2019-01-12T00:20:11.813Z,26.7
2019-01-12T00:23:17.775Z,26.7
2019-01-12T00:26:23.835Z,26.7
2019-01-12T00:29:29.898Z,26.6
2019-01-12T00:32:35.957Z,26.6
2019-01-12T00:35:41.901Z,26.7
2019-01-12T00:38:47.992Z,26.7
2019-01-12T00:41:53.974Z,26.8
2019-01-12T00:45:00.259Z,26.8
2019-01-12T00:48:06.271Z,26.8
2019-01-12T00:51:12.227Z,26.8
2019-01-12T00:54:18.395Z,26.8
2019-01-12T00:57:24.464Z,26.8
2019-01-12T01:00:30.517Z,26.9
2019-01-12T01:03:36.680Z,26.9
2019-01-12T01:06:42.644Z,27
2019-01-12T01:09:48.530Z,26.9
2019-01-12T01:12:54.561Z,26.9
2019-01-12T01:16:00.622Z,26.8
2019-01-12T01:19:09.453Z,26.8
2019-01-12T01:22:15.335Z,26.8
2019-01-12T01:25:21.368Z,26.8
2019-01-12T01:28:27.328Z,26.8
2019-01-12T01:31:33.388Z,26.9
2019-01-12T01:34:39.275Z,26.9
2019-01-12T01:37:45.416Z,26.9
2019-01-12T01:40:51.476Z,26.9
2019-01-12T01:43:57.534Z,26.9
2019-01-12T01:47:03.598Z,26.9
2019-01-12T01:50:09.660Z,26.8
2019-01-12T01:53:15.738Z,26.9
2019-01-12T01:56:21.884Z,26.8
2019-01-12T01:59:27.851Z,26.8
2019-01-12T02:02:34.006Z,26.9
2019-01-12T02:05:39.967Z,26.9
2019-01-12T02:08:45.947Z,27
2019-01-12T02:11:51.988Z,27
2019-01-12T02:14:58.052Z,27
2019-01-12T02:18:04.114Z,26.9
2019-01-12T02:21:10.071Z,26.9
2019-01-12T02:24:16.252Z,26.9
2019-01-12T02:27:22.305Z,26.9
2019-01-12T02:30:28.176Z,26.9
2019-01-12T02:33:37.289Z,26.9
2019-01-12T02:36:43.248Z,26.9
2019-01-12T02:39:49.515Z,26.9
2019-01-12T02:42:55.388Z,26.8
2019-01-12T02:46:01.640Z,26.8
2019-01-12T02:49:07.604Z,26.9
2019-01-12T02:52:13.562Z,27
2019-01-12T02:55:19.438Z,27
2019-01-12T02:58:25.486Z,27
2019-01-12T03:01:31.447Z,27
2019-01-12T03:04:37.408Z,27
2019-01-12T03:07:43.562Z,27
2019-01-12T03:10:49.442Z,27
2019-01-12T03:13:55.380Z,27
2019-01-12T03:17:01.543Z,27.1
2019-01-12T03:20:07.709Z,27.2
2019-01-12T03:23:14.622Z,27.2
2019-01-12T03:26:20.763Z,27.1
2019-01-12T03:29:26.822Z,27.1
2019-01-12T03:32:32.996Z,27
2019-01-12T03:35:39.147Z,27
2019-01-12T03:38:45.212Z,27
2019-01-12T03:41:51.391Z,27
2019-01-12T03:44:57.323Z,27.1
2019-01-12T03:48:03.394Z,27.1
2019-01-12T03:51:09.315Z,27.1
2019-01-12T03:54:15.414Z,27.1
2019-01-12T03:57:21.284Z,27.1
2019-01-12T04:00:27.334Z,27.1
2019-01-12T04:03:33.392Z,27
2019-01-12T04:06:39.581Z,27
2019-01-12T04:09:45.726Z,27.1
2019-01-12T04:12:51.688Z,27
2019-01-12T04:15:57.747Z,27.1
2019-01-12T04:19:03.620Z,27
2019-01-12T04:22:09.770Z,27.1
2019-01-12T04:25:15.825Z,27
2019-01-12T04:28:21.891Z,27
2019-01-12T04:31:27.973Z,26.9
2019-01-12T04:34:34.005Z,27
2019-01-12T04:37:39.947Z,27
2019-01-12T04:40:45.955Z,27
2019-01-12T04:43:54.547Z,27.1
2019-01-12T04:47:00.533Z,27.1
2019-01-12T04:50:06.571Z,27
2019-01-12T04:53:12.626Z,27
2019-01-12T04:56:21.352Z,26.8
2019-01-12T04:59:27.414Z,26.9
2019-01-12T05:02:33.375Z,27
2019-01-12T05:05:39.252Z,27.1
2019-01-12T05:08:45.190Z,27.1
2019-01-12T05:11:51.252Z,27.1
2019-01-12T05:14:57.214Z,27
2019-01-12T05:18:03.170Z,27
2019-01-12T05:21:09.045Z,27
2019-01-12T05:24:14.991Z,27
2019-01-12T05:27:20.947Z,27
2019-01-12T05:30:27.018Z,26.9
2019-01-12T05:33:32.981Z,27
2019-01-12T05:36:38.931Z,27
2019-01-12T05:39:44.896Z,26.9
2019-01-12T05:42:53.613Z,26.9
2019-01-12T05:45:59.488Z,27.1
2019-01-12T05:49:05.431Z,27.1
2019-01-12T05:52:11.397Z,27.1
2019-01-12T05:55:17.355Z,27
2019-01-12T05:58:23.495Z,27.1
2019-01-12T06:01:29.582Z,27.1
2019-01-12T06:04:35.452Z,27
2019-01-12T06:07:41.359Z,27
2019-01-12T06:10:47.359Z,27.1
2019-01-12T06:13:53.419Z,27.1
2019-01-12T06:16:59.379Z,27.1
2019-01-12T06:20:05.336Z,27.1
2019-01-12T06:23:11.207Z,27.1
2019-01-12T06:26:17.153Z,27.1
2019-01-12T06:29:23.114Z,27
2019-01-12T06:32:29.055Z,27
2019-01-12T06:35:35.033Z,27.1
2019-01-12T06:38:40.939Z,27.2
2019-01-12T06:41:46.951Z,27.2
2019-01-12T06:44:52.912Z,27.1
2019-01-12T06:48:00.207Z,27.1
2019-01-12T06:51:06.259Z,27.1
2019-01-12T06:54:12.633Z,27.1
2019-01-12T06:57:18.542Z,27
2019-01-12T07:00:24.570Z,27
2019-01-12T07:03:30.611Z,26.9
2019-01-12T07:06:36.572Z,26.9
2019-01-12T07:09:42.648Z,26.9
2019-01-12T07:12:48.575Z,27
2019-01-12T07:15:54.653Z,26.9
2019-01-12T07:19:00.529Z,27
2019-01-12T07:22:06.674Z,27
2019-01-12T07:25:12.546Z,27
2019-01-12T07:28:18.495Z,27.1
2019-01-12T07:31:24.367Z,27.2
2019-01-12T07:34:30.305Z,27.1
2019-01-12T07:37:36.372Z,27.2
2019-01-12T07:40:42.246Z,27.2
2019-01-12T07:43:48.291Z,27.1
2019-01-12T07:46:54.163Z,27.2
2019-01-12T07:50:00.243Z,27.1
2019-01-12T07:53:06.374Z,27
2019-01-12T07:56:12.245Z,27
2019-01-12T07:59:18.188Z,26.9
2019-01-12T08:02:24.169Z,27
2019-01-12T08:05:30.208Z,26.9
2019-01-12T08:08:36.077Z,27
2019-01-12T08:11:42.025Z,26.9
2019-01-12T08:14:48.089Z,26.9
2019-01-12T08:17:54.047Z,26.8
2019-01-12T08:21:00.005Z,26.9
2019-01-12T08:24:06.067Z,26.8
2019-01-12T08:27:11.937Z,26.9
2019-01-12T08:30:17.991Z,26.9
2019-01-12T08:33:23.959Z,26.9
2019-01-12T08:36:30.012Z,26.8
2019-01-12T08:39:35.912Z,26.7
2019-01-12T08:42:41.828Z,26.6
2019-01-12T08:45:47.893Z,26.7
2019-01-12T08:48:53.762Z,26.7
2019-01-12T08:51:59.810Z,26.7
2019-01-12T08:55:05.683Z,26.8
2019-01-12T08:58:11.623Z,26.7
2019-01-12T09:01:20.048Z,26.7
2019-01-12T09:04:26.002Z,26.7
2019-01-12T09:07:31.962Z,26.7
2019-01-12T09:10:37.828Z,26.8
2019-01-12T09:13:46.340Z,26.8
2019-01-12T09:16:55.090Z,27
2019-01-12T09:20:01.022Z,26.8
2019-01-12T09:23:06.975Z,26.9
2019-01-12T09:26:12.848Z,27
2019-01-12T09:29:18.800Z,26.9
2019-01-12T09:32:24.755Z,26.9
2019-01-12T09:35:30.711Z,26.9
2019-01-12T09:38:36.583Z,26.9
2019-01-12T09:41:42.530Z,26.9
2019-01-12T09:44:48.447Z,27
2019-01-12T09:47:54.350Z,27
2019-01-12T09:51:00.218Z,27
2019-01-12T09:54:06.168Z,27
2019-01-12T09:57:12.130Z,27
2019-01-12T10:00:18.118Z,27
2019-01-12T10:03:24.059Z,27
2019-01-12T10:06:30.106Z,27.1
2019-01-12T10:09:38.584Z,27
2019-01-12T10:12:44.584Z,27
2019-01-12T10:15:50.549Z,26.9
2019-01-12T10:18:56.512Z,26.9
2019-01-12T10:22:02.465Z,26.9
2019-01-12T10:25:08.330Z,27.1
2019-01-12T10:28:14.278Z,27.1
2019-01-12T10:31:20.235Z,27.1
2019-01-12T10:34:26.197Z,27.1
2019-01-12T10:37:32.097Z,27.2
2019-01-12T10:40:38.114Z,27.2
2019-01-12T10:43:44.077Z,27.1
2019-01-12T10:46:50.034Z,27.1
2019-01-12T10:49:56.097Z,27.2
2019-01-12T10:53:03.517Z,27.3
2019-01-12T10:56:09.447Z,27.3
2019-01-12T10:59:15.317Z,27.2
2019-01-12T11:02:21.277Z,27.2
2019-01-12T11:05:27.253Z,27.3
2019-01-12T11:08:33.286Z,27.2
2019-01-12T11:11:39.255Z,27.3
2019-01-12T11:14:47.968Z,27.2
2019-01-12T11:17:53.852Z,27.3
2019-01-12T11:20:59.887Z,27.3
2019-01-12T11:24:05.845Z,27.2
2019-01-12T11:27:13.034Z,27.2
2019-01-12T11:30:18.996Z,27.1
2019-01-12T11:33:24.894Z,27.1
2019-01-12T11:36:30.913Z,27.2
2019-01-12T11:39:36.873Z,27.2
2019-01-12T11:42:43.683Z,27.2
2019-01-12T11:45:51.367Z,27.1
2019-01-12T11:48:57.326Z,27.1
2019-01-12T11:52:03.379Z,27.2
2019-01-12T11:55:09.340Z,27.2
2019-01-12T11:58:15.398Z,27.3
2019-01-12T12:01:21.335Z,27.2
2019-01-12T12:04:29.672Z,27.2
2019-01-12T12:07:36.810Z,27.3
2019-01-12T12:10:42.718Z,27.4
2019-01-12T12:13:48.589Z,27.3
2019-01-12T12:16:54.530Z,27.3
2019-01-12T12:20:00.507Z,27.3
2019-01-12T12:23:06.367Z,27.4
2019-01-12T12:26:12.612Z,27.4
2019-01-12T12:29:18.496Z,27.4
2019-01-12T12:32:26.930Z,27.4
2019-01-12T12:35:38.588Z,27.4
2019-01-12T12:38:44.469Z,27.4
2019-01-12T12:41:50.403Z,27.4
2019-01-12T12:44:56.364Z,27.4
2019-01-12T12:48:02.312Z,27.4
2019-01-12T12:51:08.525Z,27.4
2019-01-12T12:54:14.453Z,27.4
2019-01-12T12:57:20.404Z,27.4
2019-01-12T13:00:26.272Z,27.5
2019-01-12T13:03:32.217Z,27.4
2019-01-12T13:06:38.280Z,27.5
2019-01-12T13:09:44.239Z,27.4
2019-01-12T13:12:50.213Z,27.5
2019-01-12T13:15:56.074Z,27.5
2019-01-12T13:19:02.025Z,27.5
2019-01-12T13:22:07.983Z,27.5
2019-01-12T13:25:13.934Z,27.5
2019-01-12T13:28:19.809Z,27.5
2019-01-12T13:31:27.286Z,27.5
2019-01-12T13:34:33.350Z,27.5
2019-01-12T13:37:39.221Z,27.6
2019-01-12T13:40:45.271Z,27.6
2019-01-12T13:43:53.897Z,27.5
2019-01-12T13:46:59.852Z,27.6
2019-01-12T13:50:05.814Z,27.6
2019-01-12T13:53:11.769Z,27.6
2019-01-12T13:56:17.728Z,27.6
2019-01-12T13:59:23.634Z,27.6
2019-01-12T14:02:29.651Z,27.6
2019-01-12T14:05:35.608Z,27.6
2019-01-12T14:08:41.682Z,27.7
2019-01-12T14:11:47.546Z,27.6
2019-01-12T14:14:53.489Z,27.7
2019-01-12T14:17:59.485Z,27.6
2019-01-12T14:21:05.508Z,27.6
2019-01-12T14:24:11.465Z,27.6
2019-01-12T14:27:17.421Z,27.5
2019-01-12T14:30:23.387Z,27.6
2019-01-12T14:33:29.276Z,27.6
2019-01-12T14:36:35.204Z,27.6
2019-01-12T14:39:41.262Z,27.6
2019-01-12T14:42:47.222Z,27.7
2019-01-12T14:45:53.182Z,27.7
2019-01-12T14:48:59.064Z,27.7
2019-01-12T14:52:05.101Z,27.8
2019-01-12T14:55:13.722Z,27.8
2019-01-12T14:58:19.684Z,27.8
2019-01-12T15:01:25.743Z,27.8
2019-01-12T15:04:31.739Z,27.8
2019-01-12T15:07:37.974Z,27.9
2019-01-12T15:10:44.033Z,27.8
2019-01-12T15:13:49.996Z,27.8
2019-01-12T15:16:56.053Z,27.8
2019-01-12T15:20:02.013Z,27.9
2019-01-12T15:23:07.972Z,27.9
2019-01-12T15:26:13.851Z,27.8
2019-01-12T15:29:19.896Z,27.9
2019-01-12T15:32:28.727Z,27.9
2019-01-12T15:35:34.761Z,27.9
2019-01-12T15:38:40.746Z,27.8
2019-01-12T15:41:46.614Z,27.9
2019-01-12T15:44:52.662Z,28
2019-01-12T15:47:58.722Z,28
2019-01-12T15:51:04.678Z,28
2019-01-12T15:54:10.550Z,28
2019-01-12T15:57:16.500Z,28
2019-01-12T16:00:22.454Z,28
2019-01-12T16:03:28.539Z,28
2019-01-12T16:06:34.476Z,28
2019-01-12T16:09:40.347Z,28
2019-01-12T16:12:46.507Z,28
2019-01-12T16:15:52.457Z,27.9
2019-01-12T16:18:58.416Z,27.9
2019-01-12T16:22:04.581Z,27.9
2019-01-12T16:25:10.539Z,27.9
2019-01-12T16:28:23.770Z,27.9
2019-01-12T16:31:29.732Z,27.9
2019-01-12T16:34:35.608Z,27.9
2019-01-12T16:37:41.651Z,27.9
2019-01-12T16:40:47.610Z,27.9
2019-01-12T16:43:53.480Z,27.9
2019-01-12T16:46:59.527Z,27.9
2019-01-12T16:50:05.464Z,27.9
2019-01-12T16:53:11.548Z,27.8
2019-01-12T16:56:17.525Z,27.9
2019-01-12T16:59:23.466Z,27.8
2019-01-12T17:02:29.440Z,27.8
2019-01-12T17:05:35.402Z,27.8
2019-01-12T17:08:41.380Z,27.9
2019-01-12T17:11:47.306Z,27.9
2019-01-12T17:14:53.267Z,27.7
2019-01-12T17:17:59.156Z,27.8
2019-01-12T17:21:05.184Z,27.8
2019-01-12T17:24:11.056Z,27.8
2019-01-12T17:27:17.016Z,27.7
2019-01-12T17:30:23.079Z,27.7
2019-01-12T17:33:29.239Z,27.7
2019-01-12T17:36:35.109Z,27.7
2019-01-12T17:39:41.053Z,27.8
2019-01-12T17:42:47.005Z,27.8
2019-01-12T17:45:52.872Z,27.8
2019-01-12T17:48:58.824Z,27.8
2019-01-12T17:52:04.790Z,27.8
2019-01-12T17:55:12.298Z,27.8
2019-01-12T17:58:18.438Z,27.8
2019-01-12T18:01:24.412Z,27.8
2019-01-12T18:04:30.370Z,27.8
2019-01-12T18:07:37.559Z,27.8
2019-01-12T18:10:43.608Z,27.8
2019-01-12T18:13:49.568Z,27.8
2019-01-12T18:16:55.531Z,27.8
2019-01-12T18:20:01.487Z,27.8
2019-01-12T18:23:07.440Z,27.8
2019-01-12T18:26:13.439Z,27.8
2019-01-12T18:29:19.365Z,27.8
2019-01-12T18:32:25.328Z,27.8
2019-01-12T18:35:31.288Z,27.8
2019-01-12T18:38:37.244Z,27.8
2019-01-12T18:41:43.201Z,27.8
2019-01-12T18:44:49.271Z,27.8
2019-01-12T18:47:55.227Z,27.9
2019-01-12T18:51:01.193Z,27.9
2019-01-12T18:54:07.062Z,27.8
2019-01-12T18:57:15.157Z,27.8
2019-01-12T19:00:21.026Z,27.8
2019-01-12T19:03:27.079Z,27.9
2019-01-12T19:06:33.032Z,27.9
2019-01-12T19:09:39.096Z,27.8
2019-01-12T19:12:45.066Z,27.9
2019-01-12T19:15:52.037Z,27.9
2019-01-12T19:18:58.003Z,27.9
2019-01-12T19:22:03.877Z,27.9
2019-01-12T19:25:09.918Z,27.9
2019-01-12T19:28:15.982Z,27.9
2019-01-12T19:31:21.852Z,28
2019-01-12T19:34:27.796Z,28
2019-01-12T19:37:33.755Z,28
2019-01-12T19:40:39.815Z,28
2019-01-12T19:43:45.701Z,28
2019-01-12T19:46:51.628Z,28
2019-01-12T19:50:00.454Z,28
2019-01-12T19:53:06.515Z,28
2019-01-12T19:56:12.474Z,28
2019-01-12T19:59:18.440Z,28
2019-01-12T20:02:26.834Z,28
2019-01-12T20:05:32.817Z,28.1
2019-01-12T20:08:38.780Z,28.1
2019-01-12T20:11:44.656Z,28.1
2019-01-12T20:14:50.698Z,28.1
2019-01-12T20:17:56.573Z,28.1
2019-01-12T20:21:02.523Z,28.2
2019-01-12T20:24:08.382Z,28.2
2019-01-12T20:27:14.323Z,28.1
2019-01-12T20:30:20.290Z,28.2
2019-01-12T20:33:26.196Z,28.2
2019-01-12T20:36:32.211Z,28.2
2019-01-12T20:39:38.169Z,28.2
2019-01-12T20:42:44.130Z,28.3
2019-01-12T20:45:50.096Z,28.2
2019-01-12T20:48:56.159Z,28.3
2019-01-12T20:52:02.112Z,28.3
2019-01-12T20:55:07.974Z,28.3
2019-01-12T20:58:13.933Z,28.3
2019-01-12T21:01:19.891Z,28.3
2019-01-12T21:04:25.749Z,28.4
2019-01-12T21:07:34.783Z,28.4
2019-01-12T21:10:40.830Z,28.5
2019-01-12T21:13:48.210Z,28.5
2019-01-12T21:16:54.147Z,28.5
2019-01-12T21:20:00.232Z,28.6
2019-01-12T21:23:06.309Z,28.7
2019-01-12T21:26:12.193Z,28.7
2019-01-12T21:29:18.131Z,28.7
2019-01-12T21:32:23.994Z,28.7
2019-01-12T21:35:30.041Z,28.7
2019-01-12T21:38:35.912Z,28.7
2019-01-12T21:41:41.857Z,28.7
2019-01-12T21:44:49.357Z,28.7
2019-01-12T21:47:55.316Z,28.8
2019-01-12T21:51:01.200Z,28.8
2019-01-12T21:54:07.133Z,28.8
2019-01-12T21:57:13.001Z,28.9
2019-01-12T22:00:19.049Z,28.9
2019-01-12T22:03:24.920Z,28.8
2019-01-12T22:06:30.969Z,28.8
2019-01-12T22:09:36.845Z,28.8
2019-01-12T22:12:42.895Z,28.9
2019-01-12T22:15:48.759Z,28.8
2019-01-12T22:18:54.709Z,28.9
2019-01-12T22:22:00.768Z,28.9
2019-01-12T22:25:06.726Z,28.9
2019-01-12T22:28:12.686Z,29
2019-01-12T22:31:18.643Z,28.8
2019-01-12T22:34:24.609Z,28.8
2019-01-12T22:37:30.566Z,28.9
2019-01-12T22:40:36.437Z,28.9
2019-01-12T22:43:42.485Z,28.8
2019-01-12T22:46:48.442Z,28.9
2019-01-12T22:49:57.182Z,28.9
2019-01-12T22:53:03.145Z,28.9
2019-01-12T22:56:09.188Z,28.9
2019-01-12T22:59:15.076Z,28.9
2019-01-12T23:02:21.106Z,28.9
2019-01-12T23:05:27.166Z,29
2019-01-12T23:08:33.165Z,29
2019-01-12T23:11:39.196Z,29
2019-01-12T23:14:45.146Z,29
2019-01-12T23:17:51.106Z,29
2019-01-12T23:20:56.982Z,29.1
2019-01-12T23:24:02.933Z,29.1
2019-01-12T23:27:08.986Z,29.1
2019-01-12T23:30:15.094Z,29.1
2019-01-12T23:33:20.939Z,29.1
2019-01-12T23:36:26.861Z,29.2
2019-01-12T23:39:32.823Z,29.1
2019-01-12T23:42:38.888Z,29.2
2019-01-12T23:45:44.776Z,29.1
2019-01-12T23:48:50.699Z,29.3
2019-01-12T23:51:57.730Z,29.1
2019-01-12T23:55:03.761Z,29.2
2019-01-12T23:58:09.810Z,29.2
